Time;durP1;ratioP1;P1;durP2;ratioP2;P2;SDS_P1;SDS_P2;PMS_P1;PMS_P2;Temp;Humidity;BMP_temperature;BMP_pressure;BME280_temperature;BME280_humidity;BME280_pressure;Samples;Min_cycle;Max_cycle;Signal;HPM_P1;HPM_P2
2023/01/02 00:00:06;;;;;;;12.07;9.05;;;;;;;16.02;60.97;101275.19;5114363;28;20051;-59
2023/01/02 00:02:35;;;;;;;11.55;8.15;;;;;;;15.99;60.87;101279.91;5114144;28;20047;-58
2023/01/02 00:05:03;;;;;;;13.48;9.45;;;;;;;15.97;61.05;101279.13;5114011;28;20040;-58
2023/01/02 00:07:33;;;;;;;12.18;8.75;;;;;;;15.94;61.15;101274.84;5114001;28;20058;-59
2023/01/02 00:10:05;;;;;;;12.18;9.40;;;;;;;15.90;61.10;101270.59;5113945;28;20074;-58
2023/01/02 00:12:33;;;;;;;13.00;9.00;;;;;;;15.87;61.11;101270.81;5113837;28;20047;-58
2023/01/02 00:15:02;;;;;;;11.55;8.60;;;;;;;15.86;61.12;101279.84;5114000;28;20411;-58
2023/01/02 00:17:30;;;;;;;13.02;9.63;;;;;;;15.83;61.13;101277.38;5095579;28;20104;-58
2023/01/02 00:20:00;;;;;;;12.52;9.32;;;;;;;15.82;61.14;101272.94;5113738;28;20459;-58
2023/01/02 00:22:28;;;;;;;12.18;8.75;;;;;;;15.77;61.14;101264.31;5113789;28;20044;-59
2023/01/02 00:24:58;;;;;;;12.25;8.95;;;;;;;15.77;61.28;101269.69;5113659;28;20526;-59
2023/01/02 00:27:26;;;;;;;14.35;9.98;;;;;;;15.75;61.15;101258.19;5113654;28;20073;-58
2023/01/02 00:29:54;;;;;;;12.70;9.38;;;;;;;15.71;61.16;101270.94;5113578;28;20460;-59
2023/01/02 00:32:22;;;;;;;12.45;8.88;;;;;;;15.69;61.35;101270.19;5113445;28;20039;-58
2023/01/02 00:34:50;;;;;;;12.15;9.05;;;;;;;15.68;61.32;101270.31;5112585;28;20101;-59
2023/01/02 00:37:18;;;;;;;12.00;9.20;;;;;;;15.65;61.33;101273.19;5113656;28;20051;-58
2023/01/02 00:39:48;;;;;;;12.50;9.48;;;;;;;15.63;61.16;101272.41;5113443;28;20040;-58
2023/01/02 00:42:17;;;;;;;12.05;8.98;;;;;;;15.61;61.33;101266.28;5095041;28;20412;-58
2023/01/02 00:44:46;;;;;;;12.65;9.25;;;;;;;15.59;61.39;101276.25;5094988;28;20122;-59
2023/01/02 00:47:14;;;;;;;13.27;9.50;;;;;;;15.55;61.37;101275.59;5113089;28;20043;-58
2023/01/02 00:49:42;;;;;;;12.73;9.15;;;;;;;15.54;61.46;101281.03;5113137;28;20040;-58
2023/01/02 00:52:10;;;;;;;13.27;9.35;;;;;;;15.51;61.45;101274.03;5113111;28;20476;-58
2023/01/02 00:54:38;;;;;;;12.38;9.35;;;;;;;15.50;61.51;101271.47;5113095;28;20135;-58
2023/01/02 00:57:06;;;;;;;13.48;9.30;;;;;;;15.47;61.43;101277.91;5113033;28;20052;-58
2023/01/02 00:59:36;;;;;;;12.45;8.93;;;;;;;15.45;61.42;101283.38;5094675;28;20101;-58
2023/01/02 01:02:05;;;;;;;12.05;9.40;;;;;;;15.44;61.51;101283.44;5113174;28;20131;-58
2023/01/02 01:04:34;;;;;;;11.52;9.13;;;;;;;15.41;61.49;101284.53;5112895;28;20049;-59
2023/01/02 01:07:02;;;;;;;13.25;9.13;;;;;;;15.39;61.52;101278.38;5112863;28;20075;-58
2023/01/02 01:09:31;;;;;;;13.23;8.88;;;;;;;15.37;61.53;101284.84;5112690;28;20056;-59
2023/01/02 01:12:02;;;;;;;13.57;9.07;;;;;;;15.36;61.45;101280.41;5094577;28;20112;-58
2023/01/02 01:14:32;;;;;;;11.55;8.77;;;;;;;15.32;61.47;101262.75;5112841;28;20067;-58
2023/01/02 01:17:01;;;;;;;13.20;8.82;;;;;;;15.32;61.60;101270.81;5112766;28;20044;-58
2023/01/02 01:19:30;;;;;;;12.45;9.13;;;;;;;15.30;61.58;101275.41;5112745;28;20075;-58
2023/01/02 01:21:58;;;;;;;14.48;10.10;;;;;;;15.27;61.63;101281.00;5094296;28;20130;-59
2023/01/02 01:24:27;;;;;;;13.15;9.30;;;;;;;15.24;61.56;101282.03;5112613;28;20071;-58
2023/01/02 01:26:55;;;;;;;11.98;8.48;;;;;;;15.23;61.60;101274.94;5112385;28;20058;-59
2023/01/02 01:29:23;;;;;;;13.13;9.27;;;;;;;15.21;61.63;101279.56;5112457;28;20035;-58
2023/01/02 01:31:51;;;;;;;14.60;9.68;;;;;;;15.20;61.56;101277.84;5094201;28;20051;-58
2023/01/02 01:34:21;;;;;;;13.15;9.88;;;;;;;15.17;61.53;101269.97;5112412;28;20093;-58
2023/01/02 01:36:49;;;;;;;13.43;9.77;;;;;;;15.14;61.61;101264.78;5112454;28;20122;-59
2023/01/02 01:39:17;;;;;;;14.30;10.48;;;;;;;15.14;61.61;101264.78;5112324;28;20040;-58
2023/01/02 01:41:45;;;;;;;13.38;9.75;;;;;;;15.11;61.63;101248.84;5094119;28;20052;-58
2023/01/02 01:44:47;;;;;;;12.75;9.27;;;;;;;15.09;61.66;101251.63;5112249;28;20048;-58
2023/01/02 01:47:21;;;;;;;13.35;9.40;;;;;;;15.08;61.60;101249.06;5112092;28;20055;-58
2023/01/02 01:49:58;;;;;;;13.60;9.57;;;;;;;15.06;61.73;101237.53;5112142;28;20039;-58
2023/01/02 01:52:35;;;;;;;13.20;9.32;;;;;;;15.05;61.57;101233.09;5112258;28;20388;-58
2023/01/02 01:55:09;;;;;;;12.73;9.25;;;;;;;15.03;61.72;101229.66;5112295;28;20154;-58
2023/01/02 01:57:41;;;;;;;13.25;9.27;;;;;;;15.00;61.63;101229.88;5112186;28;20123;-58
2023/01/02 02:00:10;;;;;;;14.52;10.27;;;;;;;14.98;61.74;101221.91;5111985;28;20126;-58
2023/01/02 02:02:44;;;;;;;13.00;9.63;;;;;;;14.98;61.76;101229.09;5112172;28;20071;-58
2023/01/02 02:05:19;;;;;;;13.68;10.05;;;;;;;14.97;61.81;101222.00;5112089;28;20404;-58
2023/01/02 02:07:57;;;;;;;14.43;10.15;;;;;;;14.95;61.73;101218.53;5111975;28;20050;-58
2023/01/02 02:10:25;;;;;;;14.73;10.07;;;;;;;14.93;61.73;101218.63;5111970;28;20407;-58
2023/01/02 02:12:54;;;;;;;16.52;10.35;;;;;;;14.93;61.76;101215.94;5111955;28;20043;-58
2023/01/02 02:15:27;;;;;;;13.45;9.60;;;;;;;14.89;61.75;101207.22;5112104;28;20050;-58
2023/01/02 02:18:02;;;;;;;16.98;10.32;;;;;;;14.87;61.83;101198.41;5093704;28;20142;-58
2023/01/02 02:20:37;;;;;;;13.52;9.63;;;;;;;14.87;61.77;101203.78;5093829;28;20071;-58
2023/01/02 02:23:43;;;;;;;15.82;10.32;;;;;;;14.86;61.88;101212.81;5112015;28;20092;-58
2023/01/02 02:26:35;;;;;;;14.93;10.60;;;;;;;14.84;61.68;101208.47;5111867;28;20075;-58
2023/01/02 02:29:43;;;;;;;15.00;10.48;;;;;;;14.83;61.76;101207.59;5111929;28;20071;-58
2023/01/02 02:32:21;;;;;;;15.35;10.15;;;;;;;14.81;61.84;101205.97;5052808;28;20504;-59
2023/01/02 02:34:56;;;;;;;14.05;9.98;;;;;;;14.80;61.91;101201.56;5114533;28;20442;-58
2023/01/02 02:37:31;;;;;;;14.63;10.35;;;;;;;14.77;61.76;101197.25;5132343;28;20067;-58
2023/01/02 02:40:10;;;;;;;15.82;10.25;;;;;;;14.76;61.97;101192.81;5132302;28;20043;-58
2023/01/02 02:42:49;;;;;;;14.68;10.38;;;;;;;14.75;61.83;101193.78;5132423;28;20039;-59
2023/01/02 02:45:27;;;;;;;15.15;10.50;;;;;;;14.74;61.97;101193.88;5132273;28;20373;-58
2023/01/02 02:48:02;;;;;;;16.30;11.20;;;;;;;14.72;61.94;101202.03;5132191;28;20047;-57
2023/01/02 02:50:34;;;;;;;14.02;9.30;;;;;;;14.72;62.02;101187.75;5132181;28;20070;-56
2023/01/02 02:53:07;;;;;;;15.68;9.95;;;;;;;14.70;61.87;101195.91;5132524;28;20101;-58
2023/01/02 02:55:40;;;;;;;16.95;10.95;;;;;;;14.69;61.98;101194.19;5132223;28;20071;-57
2023/01/02 02:58:08;;;;;;;16.98;10.57;;;;;;;14.68;61.98;101199.66;5133887;27;20141;-57
2023/01/02 03:00:36;;;;;;;15.57;10.63;;;;;;;14.67;61.95;101201.47;5135862;27;20043;-57
2023/01/02 03:03:16;;;;;;;14.10;9.68;;;;;;;14.66;62.13;101204.25;5135788;27;20096;-57
2023/01/02 03:06:07;;;;;;;15.80;10.57;;;;;;;14.65;61.97;101202.50;5135748;27;20050;-58
2023/01/02 03:08:43;;;;;;;14.93;10.68;;;;;;;14.64;61.94;101200.78;5135859;27;20401;-58
2023/01/02 03:11:12;;;;;;;14.75;10.02;;;;;;;14.62;62.19;101203.56;5135749;27;20050;-58
2023/01/02 03:13:47;;;;;;;16.45;10.40;;;;;;;14.62;61.99;101197.34;5135595;27;20082;-57
2023/01/02 03:16:20;;;;;;;14.10;10.55;;;;;;;14.60;62.09;101195.63;5135619;27;20046;-56
2023/01/02 03:18:55;;;;;;;14.88;10.07;;;;;;;14.59;62.00;101198.41;5135601;27;20039;-59
2023/01/02 03:21:29;;;;;;;15.05;10.00;;;;;;;14.58;62.17;101192.19;5135570;27;20089;-59
2023/01/02 03:24:04;;;;;;;15.05;10.48;;;;;;;14.56;62.03;101187.84;5135351;27;20468;-57
2023/01/02 03:26:34;;;;;;;15.82;10.93;;;;;;;14.52;62.05;101187.16;5135441;27;20063;-57
2023/01/02 03:29:07;;;;;;;14.73;10.60;;;;;;;14.53;62.15;101180.84;5135314;27;20051;-59
2023/01/02 03:31:37;;;;;;;;;;;;;;;14.52;62.23;101186.31;5135785;27;20043;-57
2023/01/02 03:34:11;;;;;;;14.15;9.98;;;;;;;14.52;62.17;101179.13;5135290;27;19920;-58
2023/01/02 03:36:41;;;;;;;;;;;;;;;14.51;62.15;101187.28;5135599;27;20541;-56
2023/01/02 03:39:12;;;;;;;13.77;9.63;;;;;;;14.51;62.02;101189.97;5135115;27;20299;-57
2023/01/02 03:41:45;;;;;;;13.88;10.68;;;;;;;14.48;62.27;101174.06;5135080;27;20523;-58
2023/01/02 03:44:15;;;;;;;14.75;10.27;;;;;;;14.47;62.36;101189.25;5135120;27;20488;-59
2023/01/02 03:46:49;;;;;;;15.77;10.43;;;;;;;14.46;62.26;101187.53;5134927;27;20047;-59
2023/01/02 03:49:22;;;;;;;14.55;10.23;;;;;;;14.45;62.39;101187.63;5134993;27;20047;-58
2023/01/02 03:51:51;;;;;;;;;;;;;;;14.44;62.30;101185.88;5135400;27;20043;-59
2023/01/02 03:54:20;;;;;;;14.80;10.20;;;;;;;14.44;62.15;101185.88;5134835;27;19919;-58
2023/01/02 03:56:55;;;;;;;14.25;10.55;;;;;;;14.43;62.30;101182.34;5134967;27;20047;-58
2023/01/02 03:59:34;;;;;;;16.58;10.43;;;;;;;14.41;62.25;101183.41;5134711;27;20074;-58
2023/01/02 04:02:09;;;;;;;13.73;10.30;;;;;;;14.40;62.38;101182.53;5134734;27;20545;-58
2023/01/02 04:04:46;;;;;;;15.93;10.88;;;;;;;14.40;62.33;101187.03;5134586;27;20043;-59
2023/01/02 04:07:26;;;;;;;15.00;10.00;;;;;;;14.39;62.26;101188.88;5134519;27;20035;-58
2023/01/02 04:09:56;;;;;;;14.93;10.05;;;;;;;14.38;62.28;101199.66;5134335;27;20082;-58
2023/01/02 04:12:27;;;;;;;15.95;11.43;;;;;;;14.38;62.41;101194.28;5134468;27;20047;-56
2023/01/02 04:14:59;;;;;;;14.40;10.38;;;;;;;14.35;62.33;101190.00;5134353;27;20408;-56
2023/01/02 04:17:34;;;;;;;14.82;9.93;;;;;;;14.35;62.37;101190.00;5134364;27;20047;-57
2023/01/02 04:20:10;;;;;;;15.55;10.05;;;;;;;14.35;62.46;101183.75;5134573;27;20134;-57
2023/01/02 04:22:48;;;;;;;16.00;10.88;;;;;;;14.33;62.37;101184.72;5134208;27;20499;-57
2023/01/02 04:25:18;;;;;;;15.25;10.30;;;;;;;14.32;62.45;101185.69;5134221;27;20088;-57
2023/01/02 04:27:54;;;;;;;14.52;9.90;;;;;;;14.31;62.42;101191.16;5134094;27;20047;-57
2023/01/02 04:30:22;;;;;;;15.57;10.48;;;;;;;14.30;62.44;101201.03;5134070;27;20490;-57
2023/01/02 04:32:51;;;;;;;13.75;10.20;;;;;;;14.29;62.57;101207.34;5134066;27;20043;-56
2023/01/02 04:35:22;;;;;;;14.27;9.93;;;;;;;14.29;62.45;101207.34;5133980;27;20067;-56
2023/01/02 04:37:51;;;;;;;13.82;9.73;;;;;;;14.29;62.42;101210.03;5133948;27;20408;-57
2023/01/02 04:40:24;;;;;;;15.48;10.02;;;;;;;14.31;62.54;101204.56;5133945;27;20373;-59
2023/01/02 04:42:53;;;;;;;13.88;9.35;;;;;;;14.38;63.21;101210.41;5134147;27;20053;-58
2023/01/02 04:45:22;;;;;;;14.60;9.80;;;;;;;14.48;63.29;101206.25;5133803;27;20121;-58
2023/01/02 04:47:53;;;;;;;13.40;10.30;;;;;;;14.58;63.26;101208.28;5133783;27;20039;-58
2023/01/02 04:50:23;;;;;;;13.20;9.32;;;;;;;14.72;63.06;101204.72;5133801;27;20492;-58
2023/01/02 04:52:51;;;;;;;12.95;9.50;;;;;;;14.82;63.03;101208.56;5133734;27;20085;-59
2023/01/02 04:55:20;;;;;;;13.80;9.18;;;;;;;14.92;62.83;101203.47;5133678;27;20053;-58
2023/01/02 04:57:48;;;;;;;13.23;8.98;;;;;;;15.02;62.57;101201.06;5115219;27;20054;-59
2023/01/02 05:00:16;;;;;;;13.43;9.40;;;;;;;15.08;62.45;101198.00;5133452;27;20054;-58
2023/01/02 05:02:44;;;;;;;12.18;8.68;;;;;;;15.21;62.40;101201.63;5133698;27;20043;-59
2023/01/02 05:05:13;;;;;;;12.85;9.02;;;;;;;15.30;62.31;101206.41;5133461;27;20130;-59
2023/01/02 05:07:42;;;;;;;13.77;9.25;;;;;;;15.39;62.21;101197.75;5133291;27;20043;-59
2023/01/02 05:10:10;;;;;;;13.20;8.77;;;;;;;15.50;62.14;101210.47;5133349;27;20062;-58
2023/01/02 05:12:39;;;;;;;13.93;9.43;;;;;;;15.59;62.03;101201.81;5133283;27;20055;-59
2023/01/02 05:15:09;;;;;;;12.65;9.05;;;;;;;15.68;61.84;101200.38;5133289;27;20042;-58
2023/01/02 05:17:39;;;;;;;13.63;9.07;;;;;;;15.73;61.81;101193.72;5133347;27;20043;-59
2023/01/02 05:20:10;;;;;;;12.48;8.95;;;;;;;15.78;61.77;101188.03;5132677;27;20107;-59
2023/01/02 05:25:27;;;;;;;13.27;8.48;;;;;;;15.80;61.68;101190.63;5133114;27;20134;-58
2023/01/02 05:27:55;;;;;;;14.52;9.48;;;;;;;15.80;61.83;101202.22;5132959;27;20455;-58
2023/01/02 05:30:24;;;;;;;14.35;9.13;;;;;;;15.79;61.81;101192.44;5133053;27;20039;-59
2023/01/02 05:32:52;;;;;;;12.65;9.10;;;;;;;15.78;61.86;101192.56;5132962;27;20049;-59
2023/01/02 05:35:20;;;;;;;11.63;8.38;;;;;;;15.76;61.93;101197.19;5132990;27;20437;-60
2023/01/02 05:37:55;;;;;;;11.50;8.57;;;;;;;15.75;62.02;101193.63;5132885;27;20400;-59
2023/01/02 05:40:23;;;;;;;13.70;9.68;;;;;;;15.72;62.07;101196.50;5114536;27;20404;-58
2023/01/02 05:42:53;;;;;;;12.63;9.05;;;;;;;15.69;62.06;101192.19;5132729;27;20051;-57
2023/01/02 05:45:21;;;;;;;12.68;8.55;;;;;;;15.68;62.24;101192.31;5132861;27;20047;-57
2023/01/02 05:47:49;;;;;;;12.02;8.93;;;;;;;15.65;62.28;101192.50;5132662;27;20480;-58
2023/01/02 05:50:17;;;;;;;13.18;8.88;;;;;;;15.63;62.36;101202.47;5132614;27;20128;-57
2023/01/02 05:52:45;;;;;;;13.60;9.52;;;;;;;15.60;62.34;101195.50;5132838;28;20084;-57
2023/01/02 05:55:13;;;;;;;12.55;9.18;;;;;;;15.58;62.36;101194.69;5132624;28;20073;-58
2023/01/02 05:57:42;;;;;;;12.27;8.52;;;;;;;15.57;62.37;101202.88;5132731;28;20376;-57
2023/01/02 06:00:13;;;;;;;13.02;9.30;;;;;;;15.53;62.52;101195.97;5132660;28;20047;-57
2023/01/02 06:02:41;;;;;;;12.40;8.82;;;;;;;15.51;62.42;101197.91;5132587;28;20043;-57
2023/01/02 06:05:15;;;;;;;13.30;9.45;;;;;;;15.49;62.39;101194.44;5132599;28;20100;-58
2023/01/02 06:07:44;;;;;;;14.32;10.00;;;;;;;15.45;62.47;101189.28;5132461;28;20070;-58
2023/01/02 06:10:12;;;;;;;14.73;9.75;;;;;;;15.44;62.46;101186.66;5131909;28;20504;-58
2023/01/02 06:12:40;;;;;;;12.75;9.73;;;;;;;15.40;62.63;101191.41;5132679;28;20039;-57
2023/01/02 06:15:09;;;;;;;12.38;8.70;;;;;;;15.39;62.51;101191.50;5132423;28;20088;-58
2023/01/02 06:17:39;;;;;;;11.77;8.65;;;;;;;15.36;62.43;101181.81;5132331;28;20079;-58
2023/01/02 06:20:10;;;;;;;13.45;8.93;;;;;;;15.34;62.45;101189.09;5132700;28;20043;-58
2023/01/02 06:22:38;;;;;;;12.65;9.48;;;;;;;15.31;62.25;101192.00;5114058;28;20105;-59
2023/01/02 06:25:07;;;;;;;12.40;8.82;;;;;;;15.29;62.16;101187.69;5114074;28;20553;-57
2023/01/02 06:27:36;;;;;;;13.23;9.02;;;;;;;15.27;62.20;101197.69;5132372;28;20050;-59
2023/01/02 06:30:05;;;;;;;11.85;8.52;;;;;;;15.22;62.23;101197.09;5126509;28;20043;-58
2023/01/02 06:32:33;;;;;;;11.85;8.50;;;;;;;15.20;62.22;101186.47;5112314;28;20067;-57
2023/01/02 06:35:02;;;;;;;13.35;8.77;;;;;;;15.18;62.19;101191.06;5122131;27;20047;-57
2023/01/02 06:37:30;;;;;;;12.27;9.38;;;;;;;15.16;62.23;101187.63;5132383;27;20132;-57
2023/01/02 06:39:59;;;;;;;14.50;9.35;;;;;;;15.13;62.33;101190.50;5115398;28;20043;-57
2023/01/02 06:42:28;;;;;;;12.23;8.73;;;;;;;15.12;62.31;101184.25;5115401;28;20120;-57
2023/01/02 06:44:56;;;;;;;14.07;9.43;;;;;;;15.11;62.18;101185.22;5115640;28;20572;-57
2023/01/02 06:47:25;;;;;;;13.05;8.63;;;;;;;15.08;62.19;101190.81;5115549;28;20131;-57
2023/01/02 06:49:53;;;;;;;15.00;10.05;;;;;;;15.07;62.37;101188.22;5115398;28;20552;-56
2023/01/02 06:52:22;;;;;;;13.52;9.45;;;;;;;15.03;62.39;101187.53;5115283;28;20075;-58
2023/01/02 06:54:51;;;;;;;13.32;9.13;;;;;;;15.02;62.29;101195.69;5115422;28;20048;-57
2023/01/02 06:57:19;;;;;;;11.57;8.57;;;;;;;14.99;62.32;101196.75;5115174;28;20097;-58
2023/01/02 06:59:47;;;;;;;14.43;9.50;;;;;;;14.97;62.37;101200.50;5115267;28;20492;-57
2023/01/02 07:02:15;;;;;;;13.57;8.90;;;;;;;14.96;62.40;101206.81;5115143;28;20113;-59
2023/01/02 07:04:44;;;;;;;13.70;9.20;;;;;;;14.95;62.25;101199.72;5115227;28;20048;-57
2023/01/02 07:07:12;;;;;;;12.68;9.27;;;;;;;14.92;62.24;101199.94;5115170;28;20048;-57
2023/01/02 07:09:41;;;;;;;13.85;9.55;;;;;;;14.91;62.39;101203.56;5114899;28;20408;-57
2023/01/02 07:12:09;;;;;;;13.73;9.77;;;;;;;14.89;62.36;101207.22;5115138;28;20043;-58
2023/01/02 07:14:38;;;;;;;12.80;8.70;;;;;;;14.88;62.43;101210.88;5096743;28;20139;-57
2023/01/02 07:17:06;;;;;;;13.32;9.15;;;;;;;14.86;62.40;101214.59;5115064;28;20047;-59
2023/01/02 07:19:34;;;;;;;13.68;9.70;;;;;;;14.82;62.46;101216.63;5114872;28;20043;-58
2023/01/02 07:22:03;;;;;;;13.20;9.35;;;;;;;14.82;62.43;101216.63;5114681;28;20055;-59
2023/01/02 07:24:31;;;;;;;13.27;8.93;;;;;;;14.80;62.48;101223.91;5114671;28;20055;-59
2023/01/02 07:27:00;;;;;;;13.98;9.30;;;;;;;14.79;62.41;101218.66;5096487;28;20104;-58
2023/01/02 07:29:28;;;;;;;13.57;9.23;;;;;;;14.77;62.33;101229.50;5114607;28;20040;-59
2023/01/02 07:31:57;;;;;;;13.48;9.18;;;;;;;14.76;62.42;101233.09;5114630;28;20435;-59
2023/01/02 07:34:25;;;;;;;12.60;8.98;;;;;;;14.74;62.36;101229.66;5114591;28;20047;-59
2023/01/02 07:36:53;;;;;;;13.52;9.60;;;;;;;14.72;62.34;101218.16;5114424;28;20089;-57
2023/01/02 07:39:24;;;;;;;12.75;9.20;;;;;;;14.71;62.61;101216.44;5096214;28;20049;-59
2023/01/02 07:41:53;;;;;;;13.07;9.25;;;;;;;14.70;62.58;101222.78;5114561;28;20082;-57
2023/01/02 07:44:22;;;;;;;13.75;9.10;;;;;;;14.68;62.55;101227.38;5095743;28;20554;-57
2023/01/02 07:46:50;;;;;;;14.30;9.82;;;;;;;14.66;62.56;101226.59;5114464;28;20040;-55
2023/01/02 07:49:19;;;;;;;12.88;8.95;;;;;;;14.65;62.48;101224.84;5114297;28;20052;-58
2023/01/02 07:51:47;;;;;;;12.68;9.15;;;;;;;14.64;62.58;101224.97;5114354;28;20500;-58
2023/01/02 07:54:15;;;;;;;13.40;9.40;;;;;;;14.62;62.69;101235.78;5114336;28;20050;-58
2023/01/02 07:56:43;;;;;;;12.98;9.20;;;;;;;14.62;62.69;101224.19;5114201;28;20047;-58
2023/01/02 07:59:11;;;;;;;12.73;9.38;;;;;;;14.59;62.83;101225.25;5114263;28;20036;-57
2023/01/02 08:01:41;;;;;;;14.90;9.68;;;;;;;14.59;62.70;101230.63;5114056;28;20052;-58
2023/01/02 08:04:09;;;;;;;14.23;9.57;;;;;;;14.58;62.58;101223.53;5114005;28;20067;-57
2023/01/02 08:06:40;;;;;;;15.20;9.45;;;;;;;14.57;62.67;101224.47;5114062;28;20056;-57
2023/01/02 08:09:08;;;;;;;13.73;9.05;;;;;;;14.56;62.67;101220.91;5095560;28;20113;-57
2023/01/02 08:11:36;;;;;;;12.60;9.18;;;;;;;14.55;62.66;101223.69;5113914;28;20495;-58
2023/01/02 08:14:05;;;;;;;13.80;9.43;;;;;;;14.53;62.71;101220.25;5095445;28;20083;-57
2023/01/02 08:16:33;;;;;;;13.95;9.43;;;;;;;14.53;62.63;101225.63;5113686;28;20047;-57
2023/01/02 08:19:02;;;;;;;12.95;8.93;;;;;;;14.52;62.70;101224.75;5113608;28;20043;-57
2023/01/02 08:21:31;;;;;;;13.80;9.13;;;;;;;14.52;62.67;101229.25;5113651;28;20089;-57
2023/01/02 08:23:59;;;;;;;14.45;9.77;;;;;;;14.50;62.78;101217.75;5113747;28;20071;-57
2023/01/02 08:26:27;;;;;;;13.38;9.35;;;;;;;14.50;62.82;101217.75;5113705;28;20050;-57
2023/01/02 08:28:55;;;;;;;14.18;9.35;;;;;;;14.48;62.73;101223.22;5113353;28;20066;-57
2023/01/02 08:31:23;;;;;;;12.05;8.38;;;;;;;14.48;62.71;101233.09;5113069;28;20040;-54
2023/01/02 08:33:51;;;;;;;13.77;9.18;;;;;;;14.46;62.82;101225.13;5113161;28;20097;-54
2023/01/02 08:36:21;;;;;;;14.10;9.45;;;;;;;14.44;62.82;101227.00;5113093;28;20043;-57
2023/01/02 08:38:49;;;;;;;16.05;9.07;;;;;;;14.44;62.82;101228.84;5094575;28;20051;-58
2023/01/02 08:41:30;;;;;;;14.35;9.70;;;;;;;14.42;62.85;101223.56;5113065;28;20048;-58
2023/01/02 08:43:58;;;;;;;11.85;8.60;;;;;;;14.43;62.89;101229.78;5112959;28;20058;-56
2023/01/02 08:46:27;;;;;;;13.13;9.55;;;;;;;14.41;62.86;101229.88;5113244;28;20048;-57
2023/01/02 08:48:55;;;;;;;14.85;9.70;;;;;;;14.42;62.81;101233.44;5117068;27;20046;-56
2023/01/02 08:51:25;;;;;;;15.52;10.40;;;;;;;14.40;62.98;101227.31;5113978;27;20051;-56
2023/01/02 08:53:54;;;;;;;13.65;9.63;;;;;;;14.40;62.90;101238.91;5117378;27;20035;-55
2023/01/02 08:56:24;;;;;;;12.63;8.98;;;;;;;14.39;62.84;101236.31;5132935;27;20050;-56
2023/01/02 08:58:54;;;;;;;15.68;9.82;;;;;;;14.39;62.96;101234.50;5115074;27;20051;-56
2023/01/02 09:01:23;;;;;;;13.10;8.98;;;;;;;14.38;62.97;101239.94;5133418;27;20103;-56
2023/01/02 09:03:52;;;;;;;13.50;9.35;;;;;;;14.38;63.05;101237.25;5133354;27;20484;-55
2023/01/02 09:06:21;;;;;;;14.38;9.60;;;;;;;14.37;63.04;101236.38;5133342;27;20499;-56
2023/01/02 09:08:52;;;;;;;15.82;9.63;;;;;;;14.36;62.98;101233.78;5133142;27;20042;-56
2023/01/02 09:11:23;;;;;;;12.80;8.85;;;;;;;14.36;63.17;101228.44;5133253;27;20042;-57
2023/01/02 09:13:52;;;;;;;13.35;9.20;;;;;;;14.35;63.11;101218.66;5133444;27;20407;-56
2023/01/02 09:16:20;;;;;;;16.05;9.48;;;;;;;14.35;62.97;101232.06;5116824;27;20052;-56
2023/01/02 09:18:49;;;;;;;15.27;9.95;;;;;;;14.35;62.96;101237.44;5112649;28;20050;-57
2023/01/02 09:21:17;;;;;;;12.98;9.25;;;;;;;14.33;63.20;101233.03;5094374;28;20497;-57
2023/01/02 09:23:45;;;;;;;13.65;9.48;;;;;;;14.33;63.04;101241.06;5094151;27;20562;-57
2023/01/02 09:26:15;;;;;;;14.90;10.00;;;;;;;14.33;63.19;101232.16;5098043;27;20047;-57
2023/01/02 09:28:44;;;;;;;14.40;9.70;;;;;;;14.32;63.21;101228.63;5112460;28;20126;-57
2023/01/02 09:31:13;;;;;;;13.52;9.73;;;;;;;14.31;63.09;101224.22;5121070;27;20084;-57
2023/01/02 09:33:43;;;;;;;15.57;9.75;;;;;;;14.32;63.23;101227.75;5132737;27;20050;-57
2023/01/02 09:36:13;;;;;;;14.32;9.00;;;;;;;14.31;63.29;101221.53;5132858;27;20043;-57
2023/01/02 09:38:41;;;;;;;13.85;9.18;;;;;;;14.30;63.20;101211.75;5132984;27;20039;-57
2023/01/02 09:41:25;;;;;;;13.18;9.10;;;;;;;14.28;63.43;101208.31;5132888;27;20043;-55
2023/01/02 09:43:58;;;;;;;13.90;8.93;;;;;;;14.29;63.18;101204.66;5132696;27;20043;-59
2023/01/02 09:46:35;;;;;;;14.27;9.20;;;;;;;14.28;63.26;101199.34;5128328;27;20051;-57
2023/01/02 09:49:04;;;;;;;14.10;9.73;;;;;;;14.29;63.27;101195.75;5112962;27;20047;-56
2023/01/02 09:51:33;;;;;;;14.02;9.23;;;;;;;14.28;63.31;101197.56;5113558;28;20404;-57
2023/01/02 09:54:02;;;;;;;14.50;9.45;;;;;;;14.28;63.26;101188.63;5132128;27;20100;-56
2023/01/02 09:56:37;;;;;;;13.68;9.38;;;;;;;14.28;63.20;101180.56;5132204;28;20484;-56
2023/01/02 09:59:14;;;;;;;14.23;8.95;;;;;;;14.27;63.28;101179.72;5125829;28;20493;-57
2023/01/02 10:01:55;;;;;;;14.63;9.48;;;;;;;14.27;63.40;101170.81;5111500;28;20062;-57
2023/01/02 10:04:36;;;;;;;14.20;9.48;;;;;;;14.25;63.42;101173.59;5111549;28;20040;-57
2023/01/02 10:07:09;;;;;;;14.07;8.90;;;;;;;14.24;63.49;101166.50;5112802;28;20146;-57
2023/01/02 10:09:48;;;;;;;14.48;9.77;;;;;;;14.26;63.69;101169.06;5096430;28;20063;-57
2023/01/02 10:12:26;;;;;;;14.05;9.23;;;;;;;14.25;63.67;101168.22;5115599;28;20043;-56
2023/01/02 10:14:59;;;;;;;12.70;9.13;;;;;;;14.23;63.69;101164.78;5115555;28;20089;-56
2023/01/02 10:17:31;;;;;;;13.83;9.37;;;;;;;14.25;63.61;101162.00;5115508;28;20047;-59
2023/01/02 10:20:08;;;;;;;15.18;9.82;;;;;;;14.26;63.47;101164.56;5097058;28;20048;-57
2023/01/02 10:22:42;;;;;;;13.18;8.85;;;;;;;14.27;63.61;101163.63;5115373;28;20079;-56
2023/01/02 10:25:17;;;;;;;14.73;9.15;;;;;;;14.33;64.61;101160.56;5115547;28;20035;-56
2023/01/02 10:27:52;;;;;;;15.32;9.43;;;;;;;14.43;65.61;101152.81;5096789;28;20049;-56
2023/01/02 10:30:23;;;;;;;12.48;8.80;;;;;;;14.55;65.27;101151.22;5097250;28;20400;-58
2023/01/02 10:32:59;;;;;;;15.02;9.55;;;;;;;14.68;64.97;101145.97;5096751;28;20144;-60
2023/01/02 10:35:37;;;;;;;13.35;8.88;;;;;;;14.81;64.71;101142.38;5132257;27;20061;-58
2023/01/02 10:38:06;;;;;;;13.68;8.82;;;;;;;14.94;64.59;101136.22;5121042;27;20050;-51
2023/01/02 10:40:34;;;;;;;14.32;9.02;;;;;;;15.03;64.58;101141.00;5125380;27;20067;-55
2023/01/02 10:43:03;;;;;;;12.15;8.63;;;;;;;15.14;64.27;101141.16;5114932;28;20101;-54
2023/01/02 10:45:33;;;;;;;13.15;8.73;;;;;;;15.23;64.34;101140.56;5096945;28;20116;-57
2023/01/02 10:48:01;;;;;;;15.60;8.82;;;;;;;15.35;64.15;101129.03;5114559;28;20123;-56
2023/01/02 10:50:39;;;;;;;13.38;8.90;;;;;;;15.44;63.78;101116.75;5124443;27;20039;-57
2023/01/02 10:53:19;;;;;;;14.18;8.63;;;;;;;15.56;63.91;101120.50;5119967;27;20536;-54
2023/01/02 10:55:48;;;;;;;13.10;8.52;;;;;;;15.66;63.77;101110.88;5118379;27;20446;-56
2023/01/02 10:58:21;;;;;;;12.98;8.38;;;;;;;15.73;63.73;101102.28;5127239;27;20051;-55
2023/01/02 11:00:51;;;;;;;12.77;8.40;;;;;;;15.78;63.73;101101.94;5127314;27;20047;-57
2023/01/02 11:03:24;;;;;;;14.48;8.77;;;;;;;15.83;63.70;101096.28;5118388;27;20040;-55
2023/01/02 11:05:54;;;;;;;12.63;8.17;;;;;;;15.86;63.69;101090.69;5118911;27;20791;-56
2023/01/02 11:08:33;;;;;;;12.98;8.63;;;;;;;15.86;63.57;101088.84;5126011;27;20338;-57
2023/01/02 11:11:01;;;;;;;13.98;8.52;;;;;;;15.88;63.84;101089.59;5109914;27;20055;-62
2023/01/02 11:13:44;;;;;;;13.10;8.20;;;;;;;15.89;64.12;101091.31;5099380;27;20039;-55
2023/01/02 11:16:22;;;;;;;16.58;9.05;;;;;;;15.90;64.22;101081.41;5107868;28;20040;-55
2023/01/02 11:18:52;;;;;;;12.65;8.32;;;;;;;15.89;64.27;101079.69;5125969;27;20511;-59
2023/01/02 11:21:25;;;;;;;13.60;8.75;;;;;;;15.86;64.38;101078.09;5134881;27;20511;-55
2023/01/02 11:23:59;;;;;;;12.38;8.65;;;;;;;15.87;64.54;101079.81;5134840;27;20081;-55
2023/01/02 11:26:29;;;;;;;15.20;8.88;;;;;;;15.86;64.67;101078.09;5135168;27;20047;-55
2023/01/02 11:29:05;;;;;;;14.40;8.90;;;;;;;15.84;64.91;101088.09;5134413;27;20051;-55
2023/01/02 11:31:34;;;;;;;15.60;9.38;;;;;;;15.83;64.79;101069.38;5125885;27;20051;-55
2023/01/02 11:34:09;;;;;;;13.85;8.23;;;;;;;15.81;65.17;101073.97;5114298;28;20057;-59
2023/01/02 11:36:37;;;;;;;14.65;8.68;;;;;;;15.81;65.17;101072.13;5113944;28;20043;-57